Flag for Germany

Past Weather in Schönau am Königssee, Bavaria, Germany — Yesterday and Last 2 Weeks

Currently: 55 °F. Cool. (Weather station: Salzburg-Flughafen, Germany). See more current weather

Past Weather in Schönau am Königssee — Graph

°F

Schönau am Königssee Temperature Yesterday

Maximum temperature yesterday: 77 °F (at 2:20 pm)
Minimum temperature yesterday: 50 °F (at 5:50 am)
Average temperature yesterday: 66 °F

High & Low Weather Summary for the Past Weeks

 TemperatureHumidityPressure
High91 °F (Aug 4, 5:20 pm)100% (Jul 26, 2:50 am)30.27 "Hg (Jul 26, 2:50 am)
Low50 °F (Aug 9, 5:50 am)34% (Aug 4, 5:20 pm)29.92 "Hg (Jul 28, 5:50 pm)
Average70 °F69%30.08 "Hg
* Reported Jul 26 12:20 am — Aug 10 12:50 am, Schönau am Königssee. Weather by CustomWeather, © 2022

Note: Actual official high and low records may vary slightly from our data, if they occured in-between our weather recording intervals... More about our weather records

Schönau am Königssee Weather History for the Previous 24 Hours

Scroll right to see more
 ConditionsComfort  
Time TempWeatherWind HumidityBarometerVisibility
12:50 am
Wed, Aug 10
57 °FCool.5 mph82%30.27 "HgN/A
12:20 am59 °FCool.3 mph77%30.27 "HgN/A
11:50 pm
Tue, Aug 9
59 °FCool.3 mph77%30.27 "HgN/A
11:20 pm59 °FCool.5 mph77%30.27 "HgN/A
10:50 pm61 °FCool.3 mph72%30.27 "HgN/A
10:20 pm61 °FClear.5 mph72%30.27 "Hg10 mi
9:50 pm66 °FClear.2 mph60%30.27 "Hg10 mi
9:20 pm70 °FClear.1 mph50%30.27 "Hg10 mi
8:50 pm72 °FPassing clouds.3 mph47%30.27 "HgN/A
8:20 pm73 °FSunny.6 mph44%30.24 "Hg10 mi
7:50 pm75 °FPassing clouds.8 mph39%30.24 "HgN/A
7:20 pm75 °FPassing clouds.10 mph39%30.24 "HgN/A
6:50 pm77 °FPassing clouds.10 mph36%30.24 "HgN/A
6:20 pm77 °FPassing clouds.10 mph36%30.24 "HgN/A
5:50 pm77 °FPassing clouds.13 mph39%30.24 "HgN/A
5:20 pm77 °FPassing clouds.12 mph39%30.24 "HgN/A
4:50 pm77 °FPassing clouds.10 mph39%30.24 "HgN/A
4:20 pm77 °FPassing clouds.12 mph42%30.24 "HgN/A
3:20 pm77 °FPassing clouds.10 mph42%30.24 "HgN/A
2:20 pm77 °FPassing clouds.12 mph44%30.24 "HgN/A
1:50 pm75 °FPassing clouds.12 mph47%30.24 "HgN/A
1:20 pm75 °FPassing clouds.10 mph47%30.24 "HgN/A
12:50 pm75 °FPassing clouds.10 mph44%30.27 "HgN/A
12:20 pm75 °FPassing clouds.12 mph47%30.27 "HgN/A
11:50 am73 °FPassing clouds.7 mph44%30.27 "HgN/A
11:20 am73 °FPassing clouds.6 mph53%30.27 "HgN/A
10:50 am72 °FPassing clouds.6 mph57%30.27 "HgN/A
10:20 am70 °FPassing clouds.3 mph57%30.27 "HgN/A
9:50 am70 °FPassing clouds.1 mph60%30.27 "HgN/A
9:20 am66 °FPassing clouds.3 mph68%30.27 "HgN/A
8:50 am64 °FPassing clouds.5 mph73%30.27 "HgN/A
8:20 am63 °FPassing clouds.3 mph77%30.27 "HgN/A
7:50 am57 °FPassing clouds.3 mph88%30.27 "HgN/A
7:20 am57 °FPassing clouds.3 mph88%30.27 "HgN/A
6:50 am54 °FSunny.1 mph94%30.27 "Hg10 mi
6:20 am52 °FFog.3 mph94%30.27 "HgN/A
5:50 am50 °FFog.3 mph100%30.24 "HgN/A
5:20 am52 °FCool.3 mph94%30.24 "HgN/A
4:50 am52 °FCool.3 mph94%30.24 "HgN/A
4:20 am54 °FCool.3 mph88%30.24 "HgN/A
3:50 am55 °FCool.5 mph88%30.24 "HgN/A
2:50 am55 °FCool.3 mph88%30.24 "HgN/A
1:20 am55 °FCool.3 mph94%30.24 "HgN/A
Weather by CustomWeather, © 2022

See weather overview